sensor_id;sensor_type;location;lat;lon;timestamp;P1;durP1;ratioP1;P2;durP2;ratioP2
47239;SDS011;32978;53.586;10.052;2022-12-10T00:03:30;54.88;;;42.50;;
47239;SDS011;32978;53.586;10.052;2022-12-10T00:08:26;57.60;;;42.05;;
47239;SDS011;32978;53.586;10.052;2022-12-10T00:13:23;44.90;;;39.97;;
47239;SDS011;32978;53.586;10.052;2022-12-10T00:18:19;53.03;;;39.50;;
47239;SDS011;32978;53.586;10.052;2022-12-10T00:23:15;48.63;;;38.33;;
47239;SDS011;32978;53.586;10.052;2022-12-10T00:28:18;49.72;;;38.75;;
47239;SDS011;32978;53.586;10.052;2022-12-10T00:33:14;44.90;;;36.65;;
47239;SDS011;32978;53.586;10.052;2022-12-10T00:38:11;45.33;;;36.65;;
47239;SDS011;32978;53.586;10.052;2022-12-10T00:43:07;49.85;;;38.25;;
47239;SDS011;32978;53.586;10.052;2022-12-10T00:48:03;45.25;;;38.45;;
47239;SDS011;32978;53.586;10.052;2022-12-10T00:52:59;46.85;;;38.00;;
47239;SDS011;32978;53.586;10.052;2022-12-10T00:57:56;48.90;;;40.63;;
47239;SDS011;32978;53.586;10.052;2022-12-10T01:02:52;45.08;;;39.15;;
47239;SDS011;32978;53.586;10.052;2022-12-10T01:07:50;45.70;;;37.50;;
47239;SDS011;32978;53.586;10.052;2022-12-10T01:12:46;43.65;;;36.28;;
47239;SDS011;32978;53.586;10.052;2022-12-10T01:17:42;41.15;;;35.78;;
47239;SDS011;32978;53.586;10.052;2022-12-10T01:22:38;42.65;;;36.42;;
47239;SDS011;32978;53.586;10.052;2022-12-10T01:27:35;43.55;;;37.83;;
47239;SDS011;32978;53.586;10.052;2022-12-10T01:32:31;41.90;;;36.85;;
47239;SDS011;32978;53.586;10.052;2022-12-10T01:37:27;43.72;;;36.10;;
47239;SDS011;32978;53.586;10.052;2022-12-10T01:42:23;44.50;;;35.30;;
47239;SDS011;32978;53.586;10.052;2022-12-10T01:47:19;39.25;;;33.95;;
47239;SDS011;32978;53.586;10.052;2022-12-10T01:52:16;40.03;;;35.45;;
47239;SDS011;32978;53.586;10.052;2022-12-10T01:57:20;39.92;;;33.75;;
47239;SDS011;32978;53.586;10.052;2022-12-10T02:12:24;33.60;;;29.48;;
47239;SDS011;32978;53.586;10.052;2022-12-10T02:17:33;36.63;;;31.00;;
47239;SDS011;32978;53.586;10.052;2022-12-10T02:22:31;33.47;;;30.10;;
47239;SDS011;32978;53.586;10.052;2022-12-10T02:27:31;35.65;;;31.80;;
47239;SDS011;32978;53.586;10.052;2022-12-10T02:32:31;34.88;;;30.05;;
47239;SDS011;32978;53.586;10.052;2022-12-10T02:37:29;34.70;;;30.02;;
47239;SDS011;32978;53.586;10.052;2022-12-10T02:42:26;34.28;;;30.60;;
47239;SDS011;32978;53.586;10.052;2022-12-10T02:47:24;31.60;;;28.23;;
47239;SDS011;32978;53.586;10.052;2022-12-10T02:52:22;32.83;;;29.40;;
47239;SDS011;32978;53.586;10.052;2022-12-10T03:02:42;30.13;;;27.00;;
47239;SDS011;32978;53.586;10.052;2022-12-10T03:08:26;30.70;;;27.45;;
47239;SDS011;32978;53.586;10.052;2022-12-10T03:12:59;29.63;;;26.55;;
47239;SDS011;32978;53.586;10.052;2022-12-10T03:17:56;29.15;;;26.08;;
47239;SDS011;32978;53.586;10.052;2022-12-10T03:22:53;28.38;;;25.50;;
47239;SDS011;32978;53.586;10.052;2022-12-10T03:27:49;30.92;;;27.13;;
47239;SDS011;32978;53.586;10.052;2022-12-10T03:32:47;30.83;;;26.10;;
47239;SDS011;32978;53.586;10.052;2022-12-10T03:37:43;26.50;;;23.52;;
47239;SDS011;32978;53.586;10.052;2022-12-10T03:42:39;26.35;;;21.63;;
47239;SDS011;32978;53.586;10.052;2022-12-10T03:47:36;26.08;;;22.52;;
47239;SDS011;32978;53.586;10.052;2022-12-10T03:52:32;28.55;;;23.17;;
47239;SDS011;32978;53.586;10.052;2022-12-10T03:57:28;29.33;;;24.50;;
47239;SDS011;32978;53.586;10.052;2022-12-10T04:02:24;29.27;;;23.67;;
47239;SDS011;32978;53.586;10.052;2022-12-10T04:07:21;22.98;;;20.67;;
47239;SDS011;32978;53.586;10.052;2022-12-10T04:12:17;23.05;;;20.85;;
47239;SDS011;32978;53.586;10.052;2022-12-10T04:17:13;22.30;;;19.90;;
47239;SDS011;32978;53.586;10.052;2022-12-10T04:22:10;22.13;;;19.73;;
47239;SDS011;32978;53.586;10.052;2022-12-10T04:27:37;22.48;;;19.70;;
47239;SDS011;32978;53.586;10.052;2022-12-10T04:32:34;24.15;;;20.35;;
47239;SDS011;32978;53.586;10.052;2022-12-10T04:37:30;24.63;;;22.00;;
47239;SDS011;32978;53.586;10.052;2022-12-10T04:42:27;23.63;;;21.15;;
47239;SDS011;32978;53.586;10.052;2022-12-10T04:47:23;22.02;;;19.88;;
47239;SDS011;32978;53.586;10.052;2022-12-10T04:52:19;23.50;;;21.13;;
47239;SDS011;32978;53.586;10.052;2022-12-10T04:57:15;22.33;;;20.13;;
47239;SDS011;32978;53.586;10.052;2022-12-10T05:02:12;22.30;;;19.98;;
47239;SDS011;32978;53.586;10.052;2022-12-10T05:07:08;23.65;;;21.25;;
47239;SDS011;32978;53.586;10.052;2022-12-10T05:12:04;22.00;;;19.98;;
47239;SDS011;32978;53.586;10.052;2022-12-10T05:17:01;23.63;;;21.33;;
47239;SDS011;32978;53.586;10.052;2022-12-10T05:21:57;23.08;;;20.80;;
47239;SDS011;32978;53.586;10.052;2022-12-10T05:27:12;23.75;;;21.52;;
47239;SDS011;32978;53.586;10.052;2022-12-10T05:32:08;23.52;;;21.27;;
47239;SDS011;32978;53.586;10.052;2022-12-10T05:37:04;21.92;;;19.77;;
47239;SDS011;32978;53.586;10.052;2022-12-10T05:42:00;22.38;;;20.08;;
47239;SDS011;32978;53.586;10.052;2022-12-10T05:46:56;23.23;;;20.90;;
47239;SDS011;32978;53.586;10.052;2022-12-10T05:51:54;21.48;;;19.38;;
47239;SDS011;32978;53.586;10.052;2022-12-10T05:56:51;23.80;;;21.60;;
47239;SDS011;32978;53.586;10.052;2022-12-10T06:01:47;23.73;;;21.42;;
47239;SDS011;32978;53.586;10.052;2022-12-10T06:06:43;23.73;;;21.42;;
47239;SDS011;32978;53.586;10.052;2022-12-10T06:11:40;23.75;;;21.45;;
47239;SDS011;32978;53.586;10.052;2022-12-10T06:16:38;23.85;;;21.85;;
47239;SDS011;32978;53.586;10.052;2022-12-10T06:21:34;23.88;;;21.65;;
47239;SDS011;32978;53.586;10.052;2022-12-10T06:26:30;23.27;;;20.88;;
47239;SDS011;32978;53.586;10.052;2022-12-10T06:31:27;25.02;;;22.63;;
47239;SDS011;32978;53.586;10.052;2022-12-10T06:36:23;25.40;;;22.60;;
47239;SDS011;32978;53.586;10.052;2022-12-10T06:41:19;22.70;;;20.60;;
47239;SDS011;32978;53.586;10.052;2022-12-10T06:46:19;23.52;;;21.23;;
47239;SDS011;32978;53.586;10.052;2022-12-10T06:51:16;24.05;;;21.75;;
47239;SDS011;32978;53.586;10.052;2022-12-10T06:56:14;23.63;;;21.20;;
47239;SDS011;32978;53.586;10.052;2022-12-10T07:01:18;23.83;;;21.42;;
47239;SDS011;32978;53.586;10.052;2022-12-10T07:06:18;25.23;;;22.83;;
47239;SDS011;32978;53.586;10.052;2022-12-10T07:11:17;26.00;;;23.52;;
47239;SDS011;32978;53.586;10.052;2022-12-10T07:16:15;25.33;;;22.92;;
47239;SDS011;32978;53.586;10.052;2022-12-10T07:21:13;25.83;;;23.42;;
47239;SDS011;32978;53.586;10.052;2022-12-10T07:26:10;25.83;;;23.33;;
47239;SDS011;32978;53.586;10.052;2022-12-10T07:31:06;23.95;;;21.77;;
47239;SDS011;32978;53.586;10.052;2022-12-10T07:36:07;25.08;;;22.63;;
47239;SDS011;32978;53.586;10.052;2022-12-10T07:41:05;26.42;;;23.88;;
47239;SDS011;32978;53.586;10.052;2022-12-10T07:46:09;24.75;;;22.33;;
47239;SDS011;32978;53.586;10.052;2022-12-10T07:51:05;24.50;;;22.30;;
47239;SDS011;32978;53.586;10.052;2022-12-10T07:56:02;25.35;;;23.02;;
47239;SDS011;32978;53.586;10.052;2022-12-10T08:00:58;24.55;;;22.25;;
47239;SDS011;32978;53.586;10.052;2022-12-10T08:06:05;27.15;;;24.60;;
47239;SDS011;32978;53.586;10.052;2022-12-10T08:11:03;25.20;;;22.98;;
47239;SDS011;32978;53.586;10.052;2022-12-10T08:16:00;26.35;;;24.13;;
47239;SDS011;32978;53.586;10.052;2022-12-10T08:20:57;26.52;;;24.23;;
47239;SDS011;32978;53.586;10.052;2022-12-10T08:25:53;24.20;;;22.27;;
47239;SDS011;32978;53.586;10.052;2022-12-10T08:30:49;25.95;;;23.58;;
47239;SDS011;32978;53.586;10.052;2022-12-10T08:35:45;26.75;;;24.27;;
47239;SDS011;32978;53.586;10.052;2022-12-10T08:40:42;26.42;;;24.08;;
47239;SDS011;32978;53.586;10.052;2022-12-10T08:45:38;25.05;;;22.75;;
47239;SDS011;32978;53.586;10.052;2022-12-10T08:50:35;26.35;;;23.85;;
47239;SDS011;32978;53.586;10.052;2022-12-10T08:55:32;26.38;;;23.65;;
47239;SDS011;32978;53.586;10.052;2022-12-10T09:00:28;25.60;;;23.10;;
47239;SDS011;32978;53.586;10.052;2022-12-10T09:05:24;24.00;;;21.63;;
47239;SDS011;32978;53.586;10.052;2022-12-10T09:10:21;25.13;;;22.77;;
47239;SDS011;32978;53.586;10.052;2022-12-10T09:15:17;26.08;;;23.42;;
47239;SDS011;32978;53.586;10.052;2022-12-10T09:20:15;24.08;;;21.70;;
47239;SDS011;32978;53.586;10.052;2022-12-10T09:25:11;24.05;;;22.00;;
47239;SDS011;32978;53.586;10.052;2022-12-10T09:30:11;23.88;;;21.67;;
47239;SDS011;32978;53.586;10.052;2022-12-10T09:35:07;22.45;;;20.45;;
47239;SDS011;32978;53.586;10.052;2022-12-10T09:40:04;20.35;;;18.50;;
47239;SDS011;32978;53.586;10.052;2022-12-10T09:50:00;20.85;;;18.83;;
47239;SDS011;32978;53.586;10.052;2022-12-10T09:54:59;21.40;;;19.38;;
47239;SDS011;32978;53.586;10.052;2022-12-10T09:59:56;20.38;;;18.58;;
47239;SDS011;32978;53.586;10.052;2022-12-10T10:05:08;20.88;;;18.90;;
47239;SDS011;32978;53.586;10.052;2022-12-10T10:15:10;19.00;;;17.25;;
47239;SDS011;32978;53.586;10.052;2022-12-10T10:20:08;18.85;;;17.23;;
47239;SDS011;32978;53.586;10.052;2022-12-10T10:25:05;17.48;;;15.88;;
47239;SDS011;32978;53.586;10.052;2022-12-10T10:30:02;19.17;;;17.40;;
47239;SDS011;32978;53.586;10.052;2022-12-10T10:35:00;17.63;;;16.02;;
47239;SDS011;32978;53.586;10.052;2022-12-10T10:39:57;18.23;;;16.42;;
47239;SDS011;32978;53.586;10.052;2022-12-10T10:44:53;18.67;;;16.92;;
47239;SDS011;32978;53.586;10.052;2022-12-10T10:49:50;18.25;;;16.50;;
47239;SDS011;32978;53.586;10.052;2022-12-10T10:54:46;17.77;;;16.17;;
47239;SDS011;32978;53.586;10.052;2022-12-10T10:59:43;17.67;;;16.10;;
47239;SDS011;32978;53.586;10.052;2022-12-10T11:04:49;18.75;;;17.05;;
47239;SDS011;32978;53.586;10.052;2022-12-10T11:09:47;18.52;;;16.77;;
47239;SDS011;32978;53.586;10.052;2022-12-10T11:14:44;17.63;;;15.93;;
47239;SDS011;32978;53.586;10.052;2022-12-10T11:19:42;16.17;;;14.68;;
47239;SDS011;32978;53.586;10.052;2022-12-10T11:24:38;17.27;;;15.68;;
47239;SDS011;32978;53.586;10.052;2022-12-10T11:44:59;18.77;;;17.08;;
47239;SDS011;32978;53.586;10.052;2022-12-10T11:50:01;17.83;;;15.93;;
47239;SDS011;32978;53.586;10.052;2022-12-10T12:10:46;20.77;;;18.60;;
47239;SDS011;32978;53.586;10.052;2022-12-10T12:15:56;18.88;;;17.10;;
47239;SDS011;32978;53.586;10.052;2022-12-10T12:25:51;19.70;;;17.88;;
47239;SDS011;32978;53.586;10.052;2022-12-10T12:30:51;18.17;;;16.45;;
47239;SDS011;32978;53.586;10.052;2022-12-10T12:35:56;19.40;;;17.50;;
47239;SDS011;32978;53.586;10.052;2022-12-10T12:41:04;19.08;;;17.15;;
47239;SDS011;32978;53.586;10.052;2022-12-10T12:46:04;18.08;;;16.38;;
47239;SDS011;32978;53.586;10.052;2022-12-10T12:51:06;18.80;;;16.95;;
47239;SDS011;32978;53.586;10.052;2022-12-10T12:56:09;18.17;;;16.42;;
47239;SDS011;32978;53.586;10.052;2022-12-10T13:01:29;17.08;;;15.48;;
47239;SDS011;32978;53.586;10.052;2022-12-10T13:06:30;17.52;;;15.70;;
47239;SDS011;32978;53.586;10.052;2022-12-10T13:11:28;19.15;;;17.20;;
47239;SDS011;32978;53.586;10.052;2022-12-10T13:21:31;18.08;;;16.38;;
47239;SDS011;32978;53.586;10.052;2022-12-10T13:26:28;18.88;;;16.88;;
47239;SDS011;32978;53.586;10.052;2022-12-10T13:41:23;19.35;;;17.40;;
47239;SDS011;32978;53.586;10.052;2022-12-10T13:46:52;19.55;;;17.58;;
47239;SDS011;32978;53.586;10.052;2022-12-10T13:56:48;19.02;;;17.23;;
47239;SDS011;32978;53.586;10.052;2022-12-10T14:01:51;19.17;;;17.25;;
47239;SDS011;32978;53.586;10.052;2022-12-10T14:06:51;20.92;;;17.95;;
47239;SDS011;32978;53.586;10.052;2022-12-10T14:11:49;19.15;;;17.25;;
47239;SDS011;32978;53.586;10.052;2022-12-10T14:16:47;20.88;;;16.83;;
47239;SDS011;32978;53.586;10.052;2022-12-10T14:21:43;20.10;;;18.10;;
47239;SDS011;32978;53.586;10.052;2022-12-10T14:26:41;20.95;;;18.75;;
47239;SDS011;32978;53.586;10.052;2022-12-10T14:31:39;21.08;;;18.90;;
47239;SDS011;32978;53.586;10.052;2022-12-10T14:36:38;20.60;;;18.52;;
47239;SDS011;32978;53.586;10.052;2022-12-10T14:41:36;19.42;;;17.42;;
47239;SDS011;32978;53.586;10.052;2022-12-10T14:46:36;18.73;;;16.85;;
47239;SDS011;32978;53.586;10.052;2022-12-10T14:51:33;19.55;;;17.02;;
47239;SDS011;32978;53.586;10.052;2022-12-10T14:56:31;19.63;;;17.60;;
47239;SDS011;32978;53.586;10.052;2022-12-10T15:01:33;20.40;;;18.10;;
47239;SDS011;32978;53.586;10.052;2022-12-10T15:06:34;20.10;;;18.03;;
47239;SDS011;32978;53.586;10.052;2022-12-10T15:11:31;20.92;;;18.75;;
47239;SDS011;32978;53.586;10.052;2022-12-10T15:16:37;21.77;;;19.20;;
47239;SDS011;32978;53.586;10.052;2022-12-10T15:21:33;21.50;;;19.05;;
47239;SDS011;32978;53.586;10.052;2022-12-10T15:26:36;21.65;;;18.88;;
47239;SDS011;32978;53.586;10.052;2022-12-10T15:31:41;20.10;;;18.08;;
47239;SDS011;32978;53.586;10.052;2022-12-10T15:36:41;20.75;;;18.55;;
47239;SDS011;32978;53.586;10.052;2022-12-10T15:41:51;21.00;;;18.70;;
47239;SDS011;32978;53.586;10.052;2022-12-10T15:46:48;19.15;;;17.13;;
47239;SDS011;32978;53.586;10.052;2022-12-10T15:51:45;21.00;;;18.80;;
47239;SDS011;32978;53.586;10.052;2022-12-10T15:56:41;20.67;;;17.83;;
47239;SDS011;32978;53.586;10.052;2022-12-10T16:01:37;19.75;;;17.60;;
47239;SDS011;32978;53.586;10.052;2022-12-10T16:06:33;19.58;;;17.48;;
47239;SDS011;32978;53.586;10.052;2022-12-10T16:11:30;20.95;;;18.58;;
47239;SDS011;32978;53.586;10.052;2022-12-10T16:16:27;20.42;;;18.23;;
47239;SDS011;32978;53.586;10.052;2022-12-10T16:21:23;23.45;;;18.35;;
47239;SDS011;32978;53.586;10.052;2022-12-10T16:26:21;20.55;;;18.13;;
47239;SDS011;32978;53.586;10.052;2022-12-10T16:31:19;19.42;;;17.42;;
47239;SDS011;32978;53.586;10.052;2022-12-10T16:36:15;25.20;;;19.15;;
47239;SDS011;32978;53.586;10.052;2022-12-10T16:41:15;20.27;;;16.92;;
47239;SDS011;32978;53.586;10.052;2022-12-10T16:46:13;22.88;;;18.33;;
47239;SDS011;32978;53.586;10.052;2022-12-10T16:51:14;21.63;;;18.58;;
47239;SDS011;32978;53.586;10.052;2022-12-10T16:56:12;24.83;;;18.48;;
47239;SDS011;32978;53.586;10.052;2022-12-10T17:01:18;24.65;;;19.42;;
47239;SDS011;32978;53.586;10.052;2022-12-10T17:06:15;23.60;;;19.10;;
47239;SDS011;32978;53.586;10.052;2022-12-10T17:11:16;23.10;;;18.90;;
47239;SDS011;32978;53.586;10.052;2022-12-10T17:16:32;24.63;;;19.58;;
47239;SDS011;32978;53.586;10.052;2022-12-10T17:21:28;24.98;;;19.67;;
47239;SDS011;32978;53.586;10.052;2022-12-10T17:26:31;24.10;;;20.25;;
47239;SDS011;32978;53.586;10.052;2022-12-10T17:31:28;26.27;;;20.00;;
47239;SDS011;32978;53.586;10.052;2022-12-10T17:36:24;27.30;;;20.10;;
47239;SDS011;32978;53.586;10.052;2022-12-10T17:41:21;27.50;;;20.05;;
47239;SDS011;32978;53.586;10.052;2022-12-10T17:46:18;23.17;;;18.52;;
47239;SDS011;32978;53.586;10.052;2022-12-10T17:51:16;25.38;;;20.20;;
47239;SDS011;32978;53.586;10.052;2022-12-10T17:56:14;23.55;;;20.15;;
47239;SDS011;32978;53.586;10.052;2022-12-10T18:01:10;25.25;;;18.90;;
47239;SDS011;32978;53.586;10.052;2022-12-10T18:06:13;22.95;;;18.25;;
47239;SDS011;32978;53.586;10.052;2022-12-10T18:11:11;23.98;;;18.58;;
47239;SDS011;32978;53.586;10.052;2022-12-10T18:16:16;22.85;;;18.17;;
47239;SDS011;32978;53.586;10.052;2022-12-10T18:21:13;25.05;;;18.45;;
47239;SDS011;32978;53.586;10.052;2022-12-10T18:26:10;25.23;;;19.58;;
47239;SDS011;32978;53.586;10.052;2022-12-10T18:31:12;26.55;;;19.88;;
47239;SDS011;32978;53.586;10.052;2022-12-10T18:36:22;26.27;;;20.10;;
47239;SDS011;32978;53.586;10.052;2022-12-10T18:41:20;29.05;;;20.95;;
47239;SDS011;32978;53.586;10.052;2022-12-10T18:46:18;23.00;;;18.08;;
47239;SDS011;32978;53.586;10.052;2022-12-10T18:51:15;19.70;;;16.90;;
47239;SDS011;32978;53.586;10.052;2022-12-10T18:56:13;20.95;;;16.55;;
47239;SDS011;32978;53.586;10.052;2022-12-10T19:01:10;24.27;;;17.13;;
47239;SDS011;32978;53.586;10.052;2022-12-10T19:06:17;23.70;;;17.65;;
47239;SDS011;32978;53.586;10.052;2022-12-10T19:11:14;26.02;;;18.63;;
47239;SDS011;32978;53.586;10.052;2022-12-10T19:16:12;24.00;;;17.08;;
47239;SDS011;32978;53.586;10.052;2022-12-10T19:21:09;22.88;;;17.05;;
47239;SDS011;32978;53.586;10.052;2022-12-10T19:31:20;21.95;;;17.05;;
47239;SDS011;32978;53.586;10.052;2022-12-10T19:36:17;22.10;;;15.77;;
47239;SDS011;32978;53.586;10.052;2022-12-10T19:41:16;22.63;;;17.02;;
47239;SDS011;32978;53.586;10.052;2022-12-10T19:51:08;21.98;;;15.57;;
47239;SDS011;32978;53.586;10.052;2022-12-10T19:56:24;21.92;;;16.90;;
47239;SDS011;32978;53.586;10.052;2022-12-10T20:01:21;20.92;;;15.63;;
47239;SDS011;32978;53.586;10.052;2022-12-10T20:06:21;21.13;;;16.13;;
47239;SDS011;32978;53.586;10.052;2022-12-10T20:11:23;19.63;;;15.32;;
47239;SDS011;32978;53.586;10.052;2022-12-10T20:16:21;19.25;;;15.48;;
47239;SDS011;32978;53.586;10.052;2022-12-10T20:21:18;19.33;;;14.88;;
47239;SDS011;32978;53.586;10.052;2022-12-10T20:26:18;21.70;;;16.25;;
47239;SDS011;32978;53.586;10.052;2022-12-10T20:31:15;23.67;;;16.45;;
47239;SDS011;32978;53.586;10.052;2022-12-10T20:36:13;23.40;;;16.25;;
47239;SDS011;32978;53.586;10.052;2022-12-10T20:41:11;20.00;;;15.48;;
47239;SDS011;32978;53.586;10.052;2022-12-10T20:46:14;21.77;;;16.33;;
47239;SDS011;32978;53.586;10.052;2022-12-10T20:51:12;18.95;;;14.60;;
47239;SDS011;32978;53.586;10.052;2022-12-10T20:56:09;18.10;;;14.82;;
47239;SDS011;32978;53.586;10.052;2022-12-10T21:01:06;19.40;;;14.95;;
47239;SDS011;32978;53.586;10.052;2022-12-10T21:06:03;19.10;;;14.13;;
47239;SDS011;32978;53.586;10.052;2022-12-10T21:11:00;21.52;;;15.13;;
47239;SDS011;32978;53.586;10.052;2022-12-10T21:15:57;17.10;;;13.60;;
47239;SDS011;32978;53.586;10.052;2022-12-10T21:20:54;20.08;;;14.90;;
47239;SDS011;32978;53.586;10.052;2022-12-10T21:25:51;18.90;;;14.23;;
47239;SDS011;32978;53.586;10.052;2022-12-10T21:30:47;23.42;;;15.38;;
47239;SDS011;32978;53.586;10.052;2022-12-10T21:35:44;16.88;;;13.75;;
47239;SDS011;32978;53.586;10.052;2022-12-10T21:40:42;19.20;;;15.48;;
47239;SDS011;32978;53.586;10.052;2022-12-10T21:45:38;18.70;;;14.18;;
47239;SDS011;32978;53.586;10.052;2022-12-10T21:50:35;18.90;;;14.60;;
47239;SDS011;32978;53.586;10.052;2022-12-10T21:55:31;19.00;;;14.80;;
47239;SDS011;32978;53.586;10.052;2022-12-10T22:00:27;21.55;;;15.07;;
47239;SDS011;32978;53.586;10.052;2022-12-10T22:05:24;17.38;;;13.10;;
47239;SDS011;32978;53.586;10.052;2022-12-10T22:10:20;16.40;;;12.63;;
47239;SDS011;32978;53.586;10.052;2022-12-10T22:15:16;16.08;;;13.50;;
47239;SDS011;32978;53.586;10.052;2022-12-10T22:20:12;17.48;;;13.65;;
47239;SDS011;32978;53.586;10.052;2022-12-10T22:25:09;15.82;;;13.45;;
47239;SDS011;32978;53.586;10.052;2022-12-10T22:30:05;17.90;;;13.63;;
47239;SDS011;32978;53.586;10.052;2022-12-10T22:35:02;18.75;;;13.35;;
47239;SDS011;32978;53.586;10.052;2022-12-10T22:39:58;18.63;;;13.38;;
47239;SDS011;32978;53.586;10.052;2022-12-10T22:45:00;15.33;;;12.77;;
47239;SDS011;32978;53.586;10.052;2022-12-10T22:49:56;15.98;;;12.60;;
47239;SDS011;32978;53.586;10.052;2022-12-10T22:54:53;14.80;;;12.35;;
47239;SDS011;32978;53.586;10.052;2022-12-10T22:59:49;14.32;;;11.98;;
47239;SDS011;32978;53.586;10.052;2022-12-10T23:04:48;15.18;;;11.38;;
47239;SDS011;32978;53.586;10.052;2022-12-10T23:09:45;16.40;;;12.35;;
47239;SDS011;32978;53.586;10.052;2022-12-10T23:14:41;14.77;;;12.35;;
47239;SDS011;32978;53.586;10.052;2022-12-10T23:19:39;14.40;;;11.57;;
47239;SDS011;32978;53.586;10.052;2022-12-10T23:24:36;15.50;;;11.32;;
47239;SDS011;32978;53.586;10.052;2022-12-10T23:29:32;14.05;;;11.43;;
47239;SDS011;32978;53.586;10.052;2022-12-10T23:34:28;14.48;;;11.63;;
47239;SDS011;32978;53.586;10.052;2022-12-10T23:39:25;15.95;;;12.45;;
47239;SDS011;32978;53.586;10.052;2022-12-10T23:44:21;13.68;;;10.80;;
47239;SDS011;32978;53.586;10.052;2022-12-10T23:49:18;12.10;;;10.50;;
47239;SDS011;32978;53.586;10.052;2022-12-10T23:54:14;14.93;;;9.80;;
47239;SDS011;32978;53.586;10.052;2022-12-10T23:59:10;15.88;;;11.73;;
